Time;durP1;ratioP1;P1;durP2;ratioP2;P2;SDS_P1;SDS_P2;PMS_P1;PMS_P2;Temp;Humidity;BMP_temperature;BMP_pressure;BME280_temperature;BME280_humidity;BME280_pressure;Samples;Min_cycle;Max_cycle;Signal;HPM_P1;HPM_P2
2023/07/11 00:01:14;;;;;;;;;;;16.70;99.90;;;;;;5094278;28;19923;-78
2023/07/11 00:03:39;;;;;;;;;;;16.70;99.90;;;;;;5111338;28;19927;-79
2023/07/11 00:06:07;;;;;;;;;;;16.70;99.90;;;;;;5111460;28;20292;-79
2023/07/11 00:08:33;;;;;;;;;;;16.70;99.90;;;;;;5107668;28;19920;-78
2023/07/11 00:10:59;;;;;;;;;;;16.70;99.90;;;;;;5091185;28;20014;-79
2023/07/11 00:13:24;;;;;;;;;;;16.60;99.90;;;;;;5057064;28;20014;-77
2023/07/11 00:16:10;;;;;;;;;;;16.70;99.90;;;;;;5090448;28;19980;-78
2023/07/11 00:18:37;;;;;;;;;;;16.70;99.90;;;;;;5091033;28;19947;-79
2023/07/11 00:21:04;;;;;;;;;;;16.70;99.90;;;;;;5110988;28;20405;-79
2023/07/11 00:23:32;;;;;;;;;;;16.70;99.90;;;;;;5094252;28;19923;-81
2023/07/11 00:25:58;;;;;;;;;;;16.80;99.90;;;;;;5113480;28;19969;-80
2023/07/11 00:28:24;;;;;;;;;;;16.80;99.90;;;;;;5121560;27;19927;-79
2023/07/11 00:30:50;;;;;;;;;;;16.70;99.90;;;;;;5120681;27;19926;-77
2023/07/11 00:33:16;;;;;;;;;;;16.70;99.90;;;;;;5138290;27;19942;-80
2023/07/11 00:35:46;;;;;;;;;;;16.60;99.90;;;;;;5137961;27;19919;-77
2023/07/11 00:38:15;;;;;;;;;;;16.60;99.90;;;;;;5138273;27;19966;-78
2023/07/11 00:40:41;;;;;;;;;;;16.60;99.90;;;;;;5138144;27;19992;-78
2023/07/11 00:43:09;;;;;;;;;;;16.60;99.90;;;;;;5138520;27;19919;-78
2023/07/11 00:45:55;;;;;;;;;;;16.60;99.90;;;;;;5138100;27;20371;-77
2023/07/11 00:48:21;;;;;;;;;;;16.60;99.90;;;;;;5138302;27;20371;-79
2023/07/11 00:50:51;;;;;;;;;;;16.60;99.90;;;;;;5134049;27;19924;-80
2023/07/11 00:53:17;;;;;;;;;;;16.60;99.90;;;;;;5118557;27;19927;-79
2023/07/11 00:55:43;;;;;;;;;;;16.60;99.90;;;;;;5100783;28;19965;-79
2023/07/11 00:58:09;;;;;;;;;;;16.60;99.90;;;;;;5117094;28;20022;-80
2023/07/11 01:00:34;;;;;;;;;;;16.60;99.90;;;;;;5117359;28;19923;-78
2023/07/11 01:03:00;;;;;;;;;;;16.70;99.90;;;;;;5117143;28;19976;-79
2023/07/11 01:05:26;;;;;;;;;;;16.60;99.90;;;;;;5127095;27;20018;-78
2023/07/11 01:07:55;;;;;;;;;;;16.60;99.90;;;;;;5138471;27;19919;-79
2023/07/11 01:10:20;;;;;;;;;;;16.50;99.90;;;;;;5138577;27;19923;-79
2023/07/11 01:12:57;;;;;;;;;;;16.50;99.90;;;;;;5138925;27;19923;-79
2023/07/11 01:15:23;;;;;;;;;;;16.40;99.90;;;;;;5121050;27;19983;-78
2023/07/11 01:17:48;;;;;;;;;;;16.30;99.90;;;;;;5137858;27;19978;-80
2023/07/11 01:20:14;;;;;;;;;;;16.30;99.90;;;;;;5138810;27;19924;-79
2023/07/11 01:22:40;;;;;;;;;;;16.20;99.90;;;;;;5139802;27;20280;-79
2023/07/11 01:25:11;;;;;;;;;;;16.30;99.90;;;;;;5138873;27;20316;-79
2023/07/11 01:27:41;;;;;;;;;;;16.30;99.90;;;;;;5138162;27;19920;-78
2023/07/11 01:30:08;;;;;;;;;;;16.30;99.90;;;;;;5137517;27;19949;-78
2023/07/11 01:32:34;;;;;;;;;;;16.40;99.90;;;;;;5137975;27;19961;-77
2023/07/11 01:35:00;;;;;;;;;;;16.40;99.90;;;;;;5137600;27;19967;-78
2023/07/11 01:37:28;;;;;;;;;;;16.40;99.90;;;;;;5136771;27;19927;-80
2023/07/11 01:39:54;;;;;;;;;;;16.50;99.90;;;;;;5134294;27;19920;-79
2023/07/11 01:42:20;;;;;;;;;;;16.50;99.90;;;;;;5134559;27;19924;-78
2023/07/11 01:44:46;;;;;;;;;;;16.60;99.90;;;;;;5134178;27;20014;-77
2023/07/11 01:47:11;;;;;;;;;;;16.60;99.90;;;;;;5134013;27;19974;-79
2023/07/11 01:49:37;;;;;;;;;;;16.70;99.90;;;;;;5129436;27;19920;-78
2023/07/11 01:52:21;;;;;;;;;;;16.70;99.90;;;;;;5096327;28;20360;-79
2023/07/11 01:54:53;;;;;;;;;;;16.80;99.90;;;;;;5113478;28;19953;-80
2023/07/11 01:57:19;;;;;;;;;;;16.80;99.90;;;;;;5114046;28;19924;-80
2023/07/11 01:59:45;;;;;;;;;;;16.80;99.90;;;;;;5113989;28;19974;-80
2023/07/11 02:02:16;;;;;;;;;;;16.90;99.90;;;;;;5127014;27;19930;-77
2023/07/11 02:04:43;;;;;;;;;;;16.90;99.90;;;;;;5133742;27;19923;-76
2023/07/11 02:07:09;;;;;;;;;;;16.80;99.90;;;;;;5133809;27;19941;-78
2023/07/11 02:09:40;;;;;;;;;;;16.80;99.90;;;;;;5134698;27;19919;-82
2023/07/11 02:12:06;;;;;;;;;;;16.70;99.90;;;;;;5133364;27;20381;-77
2023/07/11 02:14:32;;;;;;;;;;;16.70;99.90;;;;;;5099123;28;20044;-77
2023/07/11 02:16:57;;;;;;;;;;;16.60;99.90;;;;;;5096502;28;20361;-78
2023/07/11 02:19:23;;;;;;;;;;;16.50;99.90;;;;;;5113668;28;20395;-80
2023/07/11 02:21:49;;;;;;;;;;;16.40;99.90;;;;;;5096356;28;20000;-78
2023/07/11 02:24:15;;;;;;;;;;;16.30;99.90;;;;;;5112832;28;19924;-78
2023/07/11 02:26:41;;;;;;;;;;;16.20;99.90;;;;;;5113180;28;19920;-77
2023/07/11 02:29:07;;;;;;;;;;;16.20;99.90;;;;;;5070491;28;19936;-78
2023/07/11 02:31:35;;;;;;;;;;;16.10;99.90;;;;;;5075472;28;19973;-78
2023/07/11 02:34:02;;;;;;;;;;;16.10;99.90;;;;;;5092408;28;20306;-80
2023/07/11 02:36:34;;;;;;;;;;;16.10;99.90;;;;;;5093862;28;20406;-79
2023/07/11 02:39:00;;;;;;;;;;;16.00;99.90;;;;;;5092321;28;19920;-78
2023/07/11 02:41:38;;;;;;;;;;;16.00;99.90;;;;;;5092772;28;19966;-78
2023/07/11 02:44:03;;;;;;;;;;;16.00;99.90;;;;;;5092227;28;19928;-80
2023/07/11 02:46:29;;;;;;;;;;;16.00;99.90;;;;;;5075535;28;20296;-79
2023/07/11 02:48:55;;;;;;;;;;;16.00;99.90;;;;;;5074414;28;19921;-81
2023/07/11 02:51:22;;;;;;;;;;;16.00;99.90;;;;;;5075633;28;19926;-82
2023/07/11 02:53:48;;;;;;;;;;;16.00;99.90;;;;;;5093313;28;20347;-79
2023/07/11 02:56:14;;;;;;;;;;;16.00;99.90;;;;;;5091947;28;20008;-80
2023/07/11 02:58:40;;;;;;;;;;;16.00;99.90;;;;;;5091940;28;19926;-77
2023/07/11 03:01:05;;;;;;;;;;;16.00;99.90;;;;;;5058064;28;19920;-81
2023/07/11 03:03:32;;;;;;;;;;;16.00;99.90;;;;;;5075305;28;20007;-78
2023/07/11 03:06:01;;;;;;;;;;;16.00;99.90;;;;;;5092913;28;20444;-81
2023/07/11 03:08:27;;;;;;;;;;;16.00;99.90;;;;;;5074818;28;20016;-81
2023/07/11 03:10:56;;;;;;;;;;;16.00;99.90;;;;;;5110114;28;19924;-80
2023/07/11 03:13:21;;;;;;;;;;;16.00;99.90;;;;;;5111813;28;19988;-77
2023/07/11 03:15:47;;;;;;;;;;;16.10;99.90;;;;;;5111465;28;19920;-78
2023/07/11 03:18:13;;;;;;;;;;;16.00;99.90;;;;;;5111423;28;19972;-77
2023/07/11 03:20:39;;;;;;;;;;;16.10;99.90;;;;;;5110915;28;19954;-80
2023/07/11 03:23:06;;;;;;;;;;;16.00;99.90;;;;;;5094083;28;19934;-78
2023/07/11 03:25:31;;;;;;;;;;;16.10;99.90;;;;;;5111274;28;19919;-78
2023/07/11 03:27:57;;;;;;;;;;;16.00;99.90;;;;;;5093808;28;19942;-78
2023/07/11 03:30:23;;;;;;;;;;;16.00;99.90;;;;;;5113046;27;19927;-80
2023/07/11 03:32:48;;;;;;;;;;;16.00;99.90;;;;;;5132550;27;19968;-77
2023/07/11 03:35:20;;;;;;;;;;;16.00;99.90;;;;;;5132159;27;20337;-81
2023/07/11 03:37:51;;;;;;;;;;;16.00;99.90;;;;;;5116389;27;19924;-81
2023/07/11 03:40:17;;;;;;;;;;;16.00;99.90;;;;;;5132195;27;20384;-78
2023/07/11 03:42:42;;;;;;;;;;;16.00;99.90;;;;;;5098013;27;19927;-79
2023/07/11 03:45:08;;;;;;;;;;;16.10;99.90;;;;;;5114610;27;19968;-81
2023/07/11 03:47:39;;;;;;;;;;;16.10;99.90;;;;;;5131796;27;20411;-80
2023/07/11 03:50:05;;;;;;;;;;;16.10;99.90;;;;;;5106265;28;19928;-78
2023/07/11 03:52:31;;;;;;;;;;;16.20;99.90;;;;;;5112120;28;20365;-79
2023/07/11 03:54:56;;;;;;;;;;;16.20;99.90;;;;;;5114965;27;19931;-77
2023/07/11 03:57:22;;;;;;;;;;;16.20;99.90;;;;;;5114440;27;19923;-77
2023/07/11 03:59:48;;;;;;;;;;;16.20;99.90;;;;;;5131654;27;19930;-79
2023/07/11 04:02:14;;;;;;;;;;;15.50;99.90;;;;;;5131461;27;20319;-78
2023/07/11 04:04:40;;;;;;;;;;;16.30;99.90;;;;;;5114868;27;20287;-77
2023/07/11 04:07:07;;;;;;;;;;;16.30;99.90;;;;;;5114696;27;19923;-79
2023/07/11 04:09:35;;;;;;;;;;;16.30;99.90;;;;;;5133398;27;20357;-79
2023/07/11 04:12:02;;;;;;;;;;;16.40;99.90;;;;;;5114708;27;19931;-80
2023/07/11 04:14:37;;;;;;;;;;;16.40;99.90;;;;;;5131317;27;19919;-81
2023/07/11 04:17:03;;;;;;;;;;;16.50;99.90;;;;;;5131541;27;19999;-78
2023/07/11 04:19:28;;;;;;;;;;;16.50;99.90;;;;;;5114750;27;19959;-81
2023/07/11 04:21:54;;;;;;;;;;;16.60;99.90;;;;;;5132329;27;19923;-80
2023/07/11 04:24:19;;;;;;;;;;;16.70;99.90;;;;;;5131497;28;20383;-80
2023/07/11 04:26:45;;;;;;;;;;;16.80;99.90;;;;;;5115049;28;20006;-77
2023/07/11 04:29:12;;;;;;;;;;;16.90;99.90;;;;;;5131654;28;19924;-78
2023/07/11 04:31:39;;;;;;;;;;;17.00;99.90;;;;;;5131539;28;20417;-80
2023/07/11 04:34:05;;;;;;;;;;;17.00;99.90;;;;;;5130948;28;19923;-80
2023/07/11 04:36:34;;;;;;;;;;;17.10;99.90;;;;;;5131444;28;19927;-81
2023/07/11 04:39:02;;;;;;;;;;;17.20;99.90;;;;;;5131558;28;20261;-78
2023/07/11 04:41:28;;;;;;;;;;;17.30;99.90;;;;;;5114174;28;20010;-80
2023/07/11 04:43:54;;;;;;;;;;;17.40;99.90;;;;;;5113910;28;20068;-79
2023/07/11 04:46:19;;;;;;;;;;;17.50;99.90;;;;;;5113792;28;19930;-80
2023/07/11 04:48:46;;;;;;;;;;;17.50;99.90;;;;;;5131202;28;20306;-77
2023/07/11 04:51:11;;;;;;;;;;;17.60;99.90;;;;;;5127889;28;19923;-79
2023/07/11 04:53:38;;;;;;;;;;;17.70;99.90;;;;;;5114141;28;19919;-80
2023/07/11 04:56:06;;;;;;;;;;;17.70;99.90;;;;;;5113867;28;19919;-80
2023/07/11 04:58:32;;;;;;;;;;;17.70;99.90;;;;;;5114266;28;20283;-79
2023/07/11 05:01:01;;;;;;;;;;;17.70;99.90;;;;;;5114384;28;20002;-77
2023/07/11 05:03:27;;;;;;;;;;;17.70;99.90;;;;;;5130780;28;19919;-82
2023/07/11 05:05:53;;;;;;;;;;;17.70;99.90;;;;;;5129642;28;19966;-78
2023/07/11 05:08:18;;;;;;;;;;;17.70;99.90;;;;;;5130597;28;20400;-80
2023/07/11 05:10:50;;;;;;;;;;;17.70;99.90;;;;;;5114327;28;19923;-79
2023/07/11 05:13:15;;;;;;;;;;;17.70;99.90;;;;;;5132599;27;20002;-78
2023/07/11 05:15:41;;;;;;;;;;;17.70;99.90;;;;;;5135163;27;20324;-77
2023/07/11 05:18:08;;;;;;;;;;;17.80;99.90;;;;;;5134895;27;20432;-78
2023/07/11 05:20:35;;;;;;;;;;;17.80;99.90;;;;;;5118193;27;19927;-79
2023/07/11 05:23:06;;;;;;;;;;;17.90;99.90;;;;;;5102125;27;20015;-78
2023/07/11 05:25:34;;;;;;;;;;;18.10;99.90;;;;;;5117727;27;20006;-80
2023/07/11 05:28:05;;;;;;;;;;;18.20;99.90;;;;;;5118812;27;20432;-80
2023/07/11 05:30:31;;;;;;;;;;;18.40;99.90;;;;;;5134654;27;19927;-81
2023/07/11 05:32:58;;;;;;;;;;;18.70;99.90;;;;;;5135295;27;19923;-80
2023/07/11 05:35:23;;;;;;;;;;;19.00;99.90;;;;;;5134587;27;19927;-78
2023/07/11 05:37:50;;;;;;;;;;;19.20;99.90;;;;;;5117631;27;19919;-78
2023/07/11 05:40:22;;;;;;;;;;;19.30;99.90;;;;;;5134543;27;20289;-80
2023/07/11 05:42:47;;;;;;;;;;;19.40;99.90;;;;;;5100002;27;19919;-82
2023/07/11 05:45:13;;;;;;;;;;;19.50;99.90;;;;;;5116936;27;19927;-80
2023/07/11 05:47:38;;;;;;;;;;;19.60;99.90;;;;;;5116924;27;19971;-81
2023/07/11 05:50:04;;;;;;;;;;;19.70;99.90;;;;;;5091350;28;19920;-79
2023/07/11 05:52:30;;;;;;;;;;;19.80;99.90;;;;;;5096413;28;19926;-78
2023/07/11 05:54:56;;;;;;;;;;;19.90;99.90;;;;;;5113930;28;19920;-76
2023/07/11 05:57:30;;;;;;;;;;;20.00;99.90;;;;;;5114571;27;19993;-82
2023/07/11 05:59:56;;;;;;;;;;;20.00;99.90;;;;;;5133926;27;19919;-80
2023/07/11 06:02:22;;;;;;;;;;;20.00;99.90;;;;;;5134150;27;20051;-80
2023/07/11 06:04:48;;;;;;;;;;;20.00;99.90;;;;;;5099645;27;19924;-76
2023/07/11 06:07:14;;;;;;;;;;;20.00;99.90;;;;;;5116570;27;19930;-79
2023/07/11 06:09:39;;;;;;;;;;;20.00;99.90;;;;;;5116760;27;19927;-81
2023/07/11 06:12:08;;;;;;;;;;;20.10;99.90;;;;;;5135519;27;20379;-77
2023/07/11 06:14:35;;;;;;;;;;;20.20;99.90;;;;;;5100176;27;19927;-82
2023/07/11 06:17:01;;;;;;;;;;;20.30;99.90;;;;;;5116887;27;19923;-81
2023/07/11 06:19:27;;;;;;;;;;;20.20;99.90;;;;;;5133435;27;20351;-80
2023/07/11 06:21:52;;;;;;;;;;;20.10;99.90;;;;;;5134000;27;19919;-79
2023/07/11 06:24:18;;;;;;;;;;;20.00;99.90;;;;;;5133343;27;19976;-78
2023/07/11 06:26:43;;;;;;;;;;;19.90;99.90;;;;;;5134217;27;19923;-79
2023/07/11 06:29:09;;;;;;;;;;;19.90;99.90;;;;;;5133516;27;19968;-81
2023/07/11 06:31:35;;;;;;;;;;;19.80;99.90;;;;;;5133961;27;19927;-78
2023/07/11 06:34:02;;;;;;;;;;;20.00;99.90;;;;;;5133923;27;19926;-78
2023/07/11 06:36:27;;;;;;;;;;;20.10;99.90;;;;;;5134169;27;20432;-80
2023/07/11 06:38:56;;;;;;;;;;;20.20;99.90;;;;;;5134901;27;20270;-82
2023/07/11 06:41:21;;;;;;;;;;;20.30;99.90;;;;;;5133615;27;19949;-78
2023/07/11 06:43:47;;;;;;;;;;;20.50;99.90;;;;;;5133481;27;19927;-82
2023/07/11 06:46:13;;;;;;;;;;;20.60;99.90;;;;;;5127808;27;20144;-79
2023/07/11 06:48:39;;;;;;;;;;;20.70;99.90;;;;;;5112994;28;20434;-82
2023/07/11 06:51:05;;;;;;;;;;;20.90;99.90;;;;;;5095886;28;19975;-81
2023/07/11 06:53:32;;;;;;;;;;;21.00;99.90;;;;;;5111873;28;19924;-81
2023/07/11 06:55:58;;;;;;;;;;;21.20;99.90;;;;;;5112862;28;19945;-81
2023/07/11 06:58:23;;;;;;;;;;;21.30;99.90;;;;;;5112306;28;20334;-76
2023/07/11 07:00:56;;;;;;;;;;;21.50;99.90;;;;;;5112185;28;19920;-80
2023/07/11 07:03:22;;;;;;;;;;;21.70;99.90;;;;;;5112252;28;19934;-78
2023/07/11 07:05:53;;;;;;;;;;;21.80;99.90;;;;;;5112422;28;19924;-81
2023/07/11 07:08:19;;;;;;;;;;;21.90;99.90;;;;;;5112442;28;20029;-80
2023/07/11 07:10:46;;;;;;;;;;;22.00;99.90;;;;;;5112795;28;19942;-80
2023/07/11 07:13:12;;;;;;;;;;;22.10;99.90;;;;;;5112518;28;19924;-80
2023/07/11 07:15:38;;;;;;;;;;;22.20;99.90;;;;;;5111972;28;20019;-79
2023/07/11 07:18:03;;;;;;;;;;;22.40;99.90;;;;;;5112634;28;19928;-80
2023/07/11 07:20:29;;;;;;;;;;;22.60;99.90;;;;;;5094933;28;19920;-81
2023/07/11 07:22:54;;;;;;;;;;;22.80;99.90;;;;;;5112452;28;19930;-78
2023/07/11 07:25:21;;;;;;;;;;;23.00;99.90;;;;;;5111897;28;19974;-81
2023/07/11 07:27:47;;;;;;;;;;;23.10;99.90;;;;;;5112457;28;20022;-83
2023/07/11 07:30:12;;;;;;;;;;;23.20;99.90;;;;;;5112255;28;20372;-79
2023/07/11 07:32:38;;;;;;;;;;;23.40;99.90;;;;;;5094527;28;19923;-78
2023/07/11 07:35:04;;;;;;;;;;;23.50;99.90;;;;;;5111517;28;19924;-80
2023/07/11 07:37:30;;;;;;;;;;;23.70;99.90;;;;;;5111795;28;19962;-80
2023/07/11 07:39:56;;;;;;;;;;;23.90;99.90;;;;;;5095139;28;19927;-79
2023/07/11 07:42:22;;;;;;;;;;;24.00;99.90;;;;;;5111937;28;19920;-80
2023/07/11 07:44:48;;;;;;;;;;;24.10;99.90;;;;;;5111910;28;19935;-81
2023/07/11 07:47:14;;;;;;;;;;;24.20;99.90;;;;;;5111896;28;19928;-80
2023/07/11 07:49:39;;;;;;;;;;;24.20;99.90;;;;;;5116182;27;19923;-81
2023/07/11 07:52:05;;;;;;;;;;;24.30;99.90;;;;;;5132393;27;19920;-79
2023/07/11 07:54:30;;;;;;;;;;;24.10;99.90;;;;;;5132160;27;20421;-78
2023/07/11 07:56:56;;;;;;;;;;;24.00;99.90;;;;;;5132103;27;19959;-80
2023/07/11 07:59:22;;;;;;;;;;;24.00;99.90;;;;;;5132187;27;19923;-80
2023/07/11 08:01:47;;;;;;;;;;;24.00;99.90;;;;;;5115171;27;20675;-81
2023/07/11 08:04:13;;;;;;;;;;;24.10;99.90;;;;;;5114907;27;19947;-82
2023/07/11 08:06:38;;;;;;;;;;;24.00;99.90;;;;;;5114573;27;19988;-82
2023/07/11 08:09:04;;;;;;;;;;;24.10;99.90;;;;;;5132440;27;19919;-79
2023/07/11 08:11:29;;;;;;;;;;;24.20;99.90;;;;;;5132275;27;19929;-81
2023/07/11 08:13:55;;;;;;;;;;;24.30;99.90;;;;;;5131735;27;19977;-79
2023/07/11 08:16:21;;;;;;;;;;;24.50;99.90;;;;;;5131817;27;19919;-79
2023/07/11 08:18:46;;;;;;;;;;;24.70;99.90;;;;;;5115098;28;19924;-81
2023/07/11 08:21:12;;;;;;;;;;;24.90;99.90;;;;;;5131962;27;19943;-78
2023/07/11 08:23:38;;;;;;;;;;;25.00;99.90;;;;;;5131116;27;19972;-80
2023/07/11 08:26:03;;;;;;;;;;;25.10;99.90;;;;;;5114382;28;19932;-81
2023/07/11 08:28:29;;;;;;;;;;;25.20;99.90;;;;;;5133927;27;20028;-79
2023/07/11 08:30:54;;;;;;;;;;;25.20;99.90;;;;;;5135555;27;20288;-80
2023/07/11 08:33:20;;;;;;;;;;;25.00;99.90;;;;;;5153338;27;20265;-83
2023/07/11 08:35:45;;;;;;;;;;;24.90;99.90;;;;;;5153687;27;19919;-81
2023/07/11 08:38:11;;;;;;;;;;;24.80;99.90;;;;;;5118392;27;19988;-81
2023/07/11 08:40:42;;;;;;;;;;;24.60;99.90;;;;;;5117247;27;19919;-80
2023/07/11 08:43:10;;;;;;;;;;;24.40;99.90;;;;;;5135103;27;20405;-80
2023/07/11 08:45:43;;;;;;;;;;;24.30;99.90;;;;;;5134490;27;19947;-77
2023/07/11 08:48:15;;;;;;;;;;;24.10;99.90;;;;;;5135157;27;19923;-80
2023/07/11 08:51:00;;;;;;;;;;;24.10;99.90;;;;;;5157742;27;19923;-76
2023/07/11 08:53:36;;;;;;;;;;;24.20;99.90;;;;;;5138463;27;20047;-80
2023/07/11 08:56:10;;;;;;;;;;;24.40;99.90;;;;;;5122109;27;19919;-80
2023/07/11 08:58:37;;;;;;;;;;;24.60;99.90;;;;;;5138450;27;19930;-78
2023/07/11 09:01:10;;;;;;;;;;;24.90;99.90;;;;;;5138647;27;19923;-82
2023/07/11 09:03:41;;;;;;;;;;;25.10;99.90;;;;;;5138438;27;19930;-81
2023/07/11 09:06:10;;;;;;;;;;;25.20;99.90;;;;;;5121822;27;19926;-80
2023/07/11 09:08:40;;;;;;;;;;;25.40;99.90;;;;;;5138305;27;19919;-78
2023/07/11 09:11:15;;;;;;;;;;;25.40;99.90;;;;;;5121809;27;20461;-81
2023/07/11 09:13:49;;;;;;;;;;;25.40;99.90;;;;;;5121801;27;20006;-80
2023/07/11 09:16:21;;;;;;;;;;;25.40;99.90;;;;;;5138822;27;20047;-80
2023/07/11 09:19:06;;;;;;;;;;;25.50;99.90;;;;;;5137744;27;19923;-81
2023/07/11 09:21:50;;;;;;;;;;;25.60;99.90;;;;;;5138197;27;20538;-81
2023/07/11 09:24:30;;;;;;;;;;;25.80;99.90;;;;;;5139682;27;20295;-83
2023/07/11 09:26:59;;;;;;;;;;;26.00;99.90;;;;;;5138833;27;19937;-80
2023/07/11 09:29:25;;;;;;;;;;;26.00;99.90;;;;;;5137945;27;19927;-83
2023/07/11 09:31:55;;;;;;;;;;;26.00;99.90;;;;;;5138336;27;19923;-81
2023/07/11 09:34:24;;;;;;;;;;;26.00;99.90;;;;;;5137823;27;20384;-84
2023/07/11 09:36:51;;;;;;;;;;;26.20;99.90;;;;;;5138320;27;20261;-85
2023/07/11 09:39:39;;;;;;;;;;;26.40;99.90;;;;;;5138593;27;19969;-80
2023/07/11 09:42:05;;;;;;;;;;;26.50;99.90;;;;;;5138313;27;20356;-79
2023/07/11 09:44:30;;;;;;;;;;;26.70;99.90;;;;;;5120172;27;19973;-81
2023/07/11 09:46:58;;;;;;;;;;;26.80;99.90;;;;;;5128772;27;20367;-84
2023/07/11 09:49:31;;;;;;;;;;;27.00;99.90;;;;;;5135123;27;19931;-78
2023/07/11 09:52:01;;;;;;;;;;;27.00;98.90;;;;;;5117853;27;19920;-80
2023/07/11 09:54:28;;;;;;;;;;;27.10;98.70;;;;;;5117035;27;19979;-80
2023/07/11 09:56:55;;;;;;;;;;;27.10;97.90;;;;;;5117592;27;19934;-79
2023/07/11 09:59:21;;;;;;;;;;;27.20;98.50;;;;;;5134202;27;19927;-82
2023/07/11 10:01:54;;;;;;;;;;;27.30;97.00;;;;;;5100596;27;20299;-80
2023/07/11 10:04:24;;;;;;;;;;;27.30;96.50;;;;;;5117108;27;20361;-80
2023/07/11 10:06:55;;;;;;;;;;;27.30;96.90;;;;;;5117387;27;19973;-79
2023/07/11 10:09:31;;;;;;;;;;;27.40;96.90;;;;;;5117806;27;20290;-80
2023/07/11 10:11:59;;;;;;;;;;;27.40;95.60;;;;;;5117303;27;19930;-78
2023/07/11 10:14:30;;;;;;;;;;;27.50;94.90;;;;;;5117006;27;19926;-81
2023/07/11 10:16:56;;;;;;;;;;;27.50;94.00;;;;;;5100836;27;20351;-82
2023/07/11 10:19:22;;;;;;;;;;;27.40;93.00;;;;;;5100452;27;19924;-80
2023/07/11 10:21:48;;;;;;;;;;;27.30;93.90;;;;;;5099788;27;19931;-79
2023/07/11 10:24:16;;;;;;;;;;;27.20;93.90;;;;;;5118232;27;20387;-80
2023/07/11 10:26:42;;;;;;;;;;;27.10;93.70;;;;;;5101700;27;20284;-79
2023/07/11 10:29:14;;;;;;;;;;;27.10;93.80;;;;;;5118116;27;20352;-80
2023/07/11 10:31:45;;;;;;;;;;;27.00;93.60;;;;;;5100325;27;19962;-81
2023/07/11 10:34:19;;;;;;;;;;;27.00;93.50;;;;;;5117106;27;20387;-79
2023/07/11 10:36:52;;;;;;;;;;;27.10;94.10;;;;;;5116158;27;19927;-80
2023/07/11 10:39:20;;;;;;;;;;;27.20;94.30;;;;;;5116569;27;19930;-81
2023/07/11 10:42:00;;;;;;;;;;;27.30;93.20;;;;;;5116102;27;19967;-80
2023/07/11 10:44:34;;;;;;;;;;;27.50;92.90;;;;;;5099391;27;19928;-82
2023/07/11 10:47:01;;;;;;;;;;;27.60;92.70;;;;;;5099423;27;19920;-81
2023/07/11 10:49:37;;;;;;;;;;;27.60;93.20;;;;;;5115880;27;20364;-80
2023/07/11 10:52:21;;;;;;;;;;;27.80;93.40;;;;;;5133579;27;19926;-82
2023/07/11 10:55:05;;;;;;;;;;;27.90;93.20;;;;;;5116244;27;19927;-83
2023/07/11 10:57:51;;;;;;;;;;;27.90;92.00;;;;;;5132934;27;19923;-80
2023/07/11 11:00:36;;;;;;;;;;;27.80;93.10;;;;;;5133261;27;19979;-81
2023/07/11 11:03:02;;;;;;;;;;;27.80;93.40;;;;;;5116616;27;20360;-79
2023/07/11 11:05:37;;;;;;;;;;;28.00;93.20;;;;;;5133836;27;19923;-82
2023/07/11 11:08:11;;;;;;;;;;;28.00;92.40;;;;;;5133403;27;19990;-82
2023/07/11 11:10:47;;;;;;;;;;;28.00;91.70;;;;;;5133588;27;19931;-81
2023/07/11 11:13:12;;;;;;;;;;;28.00;91.30;;;;;;5133779;27;20293;-84
2023/07/11 11:15:46;;;;;;;;;;;27.90;91.30;;;;;;5132862;27;20057;-81
2023/07/11 11:18:39;;;;;;;;;;;27.90;91.30;;;;;;5133078;27;20010;-83
2023/07/11 11:21:37;;;;;;;;;;;27.90;91.20;;;;;;5114773;27;19919;-79
2023/07/11 11:24:02;;;;;;;;;;;27.90;91.60;;;;;;5088162;27;19927;-81
2023/07/11 11:26:34;;;;;;;;;;;27.90;90.70;;;;;;5115461;27;19991;-83
2023/07/11 11:29:08;;;;;;;;;;;27.90;91.30;;;;;;5127537;27;19923;-81
2023/07/11 11:31:38;;;;;;;;;;;28.10;91.10;;;;;;5132743;27;19937;-81
2023/07/11 11:34:06;;;;;;;;;;;28.20;91.50;;;;;;5116425;27;19938;-84
2023/07/11 11:36:43;;;;;;;;;;;28.50;92.80;;;;;;5122873;27;19919;-81
2023/07/11 11:39:27;;;;;;;;;;;28.80;91.60;;;;;;5098908;27;20353;-79
2023/07/11 11:42:02;;;;;;;;;;;29.20;91.80;;;;;;5114915;27;20265;-79
2023/07/11 11:44:43;;;;;;;;;;;29.50;91.50;;;;;;5136402;27;20257;-78
2023/07/11 11:47:09;;;;;;;;;;;29.50;90.70;;;;;;5135626;27;19923;-82
2023/07/11 11:49:37;;;;;;;;;;;29.80;90.60;;;;;;5129932;27;19926;-80
2023/07/11 11:52:03;;;;;;;;;;;30.00;90.00;;;;;;5115298;27;19919;-80
2023/07/11 11:54:34;;;;;;;;;;;30.00;88.50;;;;;;5098136;27;19923;-85
2023/07/11 11:57:02;;;;;;;;;;;29.70;87.70;;;;;;5115591;27;19946;-81
2023/07/11 11:59:29;;;;;;;;;;;29.40;87.60;;;;;;5115849;27;19942;-83
2023/07/11 12:01:58;;;;;;;;;;;29.20;88.70;;;;;;5097862;27;19930;-83
2023/07/11 12:04:29;;;;;;;;;;;29.20;90.00;;;;;;5115009;27;19979;-82
2023/07/11 12:07:01;;;;;;;;;;;29.40;88.50;;;;;;5114854;27;19938;-80
2023/07/11 12:09:32;;;;;;;;;;;29.40;89.50;;;;;;5115248;27;20364;-81
2023/07/11 12:12:17;;;;;;;;;;;29.50;87.70;;;;;;5115362;27;19923;-82
2023/07/11 12:14:52;;;;;;;;;;;29.50;87.20;;;;;;5114682;27;19945;-80
2023/07/11 12:17:33;;;;;;;;;;;29.50;88.70;;;;;;5115110;27;20358;-80
2023/07/11 12:20:05;;;;;;;;;;;29.60;85.70;;;;;;5097000;28;19930;-80
2023/07/11 12:22:32;;;;;;;;;;;29.60;89.00;;;;;;5115008;27;19926;-78
2023/07/11 12:24:59;;;;;;;;;;;29.80;87.30;;;;;;5097347;27;19927;-80
2023/07/11 12:27:24;;;;;;;;;;;29.90;87.50;;;;;;5115851;28;19970;-81
2023/07/11 12:29:52;;;;;;;;;;;30.00;87.30;;;;;;5114884;28;19962;-79
2023/07/11 12:32:42;;;;;;;;;;;30.20;85.70;;;;;;5104681;28;19992;-80
2023/07/11 12:35:10;;;;;;;;;;;30.20;84.90;;;;;;5114687;28;19926;-79
2023/07/11 12:37:51;;;;;;;;;;;30.30;83.10;;;;;;5115867;28;19920;-81
2023/07/11 12:40:20;;;;;;;;;;;30.20;83.70;;;;;;5114547;28;20014;-83
2023/07/11 12:42:46;;;;;;;;;;;30.30;86.30;;;;;;5105435;27;19930;-84
2023/07/11 12:45:14;;;;;;;;;;;30.50;83.80;;;;;;5135147;27;20006;-82
2023/07/11 12:47:40;;;;;;;;;;;30.30;84.50;;;;;;5118048;27;19920;-85
2023/07/11 12:50:24;;;;;;;;;;;30.10;82.90;;;;;;5126236;28;19948;-79
2023/07/11 12:52:57;;;;;;;;;;;29.70;83.80;;;;;;5115106;28;20394;-81
2023/07/11 12:55:24;;;;;;;;;;;29.50;85.80;;;;;;5115366;28;19926;-80
2023/07/11 12:57:50;;;;;;;;;;;29.50;84.30;;;;;;5132222;28;20524;-82
2023/07/11 13:00:17;;;;;;;;;;;29.40;85.00;;;;;;5098360;28;19923;-82
2023/07/11 13:02:43;;;;;;;;;;;29.30;84.40;;;;;;5097904;28;20246;-83
2023/07/11 13:05:11;;;;;;;;;;;29.50;85.80;;;;;;5132231;28;19930;-79
2023/07/11 13:07:36;;;;;;;;;;;29.80;86.40;;;;;;5114957;28;19923;-82
2023/07/11 13:10:15;;;;;;;;;;;30.10;86.00;;;;;;5097220;28;19945;-81
2023/07/11 13:12:41;;;;;;;;;;;30.40;86.50;;;;;;5114809;28;19924;-82
2023/07/11 13:15:12;;;;;;;;;;;30.60;84.10;;;;;;5115077;28;19927;-82
2023/07/11 13:17:38;;;;;;;;;;;30.30;82.80;;;;;;5115700;28;19927;-80
2023/07/11 13:20:05;;;;;;;;;;;30.10;83.10;;;;;;5097475;28;19931;-86
2023/07/11 13:22:31;;;;;;;;;;;30.00;84.10;;;;;;5114803;28;19919;-85
2023/07/11 13:24:57;;;;;;;;;;;30.00;83.20;;;;;;5113988;28;19950;-81
2023/07/11 13:27:27;;;;;;;;;;;30.00;83.90;;;;;;5114413;28;19927;-80
2023/07/11 13:29:56;;;;;;;;;;;30.10;83.90;;;;;;5114227;28;19931;-80
2023/07/11 13:32:23;;;;;;;;;;;30.30;82.40;;;;;;5114164;27;19927;-81
2023/07/11 13:34:50;;;;;;;;;;;30.40;86.10;;;;;;5100207;27;19923;-85
2023/07/11 13:37:29;;;;;;;;;;;30.60;82.50;;;;;;5116900;27;19920;-78
2023/07/11 13:39:55;;;;;;;;;;;30.50;83.10;;;;;;5101742;27;20010;-83
2023/07/11 13:42:22;;;;;;;;;;;30.50;82.50;;;;;;5118947;27;20755;-79
2023/07/11 13:44:51;;;;;;;;;;;30.60;83.60;;;;;;5117807;27;20042;-83
2023/07/11 13:47:25;;;;;;;;;;;30.80;82.90;;;;;;5118725;27;19963;-83
2023/07/11 13:50:10;;;;;;;;;;;31.00;81.70;;;;;;5124241;27;19919;-83
2023/07/11 13:52:59;;;;;;;;;;;30.80;80.20;;;;;;5156925;27;19926;-80
2023/07/11 13:55:27;;;;;;;;;;;30.70;81.20;;;;;;5107660;27;20038;-80
2023/07/11 13:57:52;;;;;;;;;;;30.40;79.80;;;;;;5121076;27;19919;-81
2023/07/11 14:00:19;;;;;;;;;;;30.20;80.40;;;;;;5104287;27;20064;-82
2023/07/11 14:02:45;;;;;;;;;;;30.10;80.10;;;;;;5121081;27;19929;-82
2023/07/11 14:05:19;;;;;;;;;;;29.80;79.60;;;;;;5138089;27;19927;-83
2023/07/11 14:07:48;;;;;;;;;;;29.50;79.90;;;;;;5156201;27;19970;-83
2023/07/11 14:10:15;;;;;;;;;;;29.30;82.50;;;;;;5138595;27;19973;-83
2023/07/11 14:12:40;;;;;;;;;;;29.10;80.60;;;;;;5138557;27;20034;-80
2023/07/11 14:15:14;;;;;;;;;;;28.90;80.50;;;;;;5120550;27;20006;-78
2023/07/11 14:17:39;;;;;;;;;;;28.70;80.70;;;;;;5137719;27;19919;-81
2023/07/11 14:20:05;;;;;;;;;;;28.80;81.40;;;;;;5156027;27;20290;-78
2023/07/11 14:22:31;;;;;;;;;;;29.10;81.60;;;;;;5137533;27;19946;-80
2023/07/11 14:24:57;;;;;;;;;;;29.50;81.70;;;;;;5126680;27;19945;-82